createdAt,value
2022-11-09T00:01:05.462Z,12.77
2022-11-09T00:03:32.770Z,13.52
2022-11-09T00:06:00.965Z,13.43
2022-11-09T00:08:29.020Z,12.35
2022-11-09T00:11:02.970Z,13.38
2022-11-09T00:13:30.230Z,15.35
2022-11-09T00:16:02.277Z,16.42
2022-11-09T00:18:30.336Z,14.25
2022-11-09T00:20:57.995Z,22.73
2022-11-09T00:23:25.240Z,12.82
2022-11-09T00:25:52.674Z,12.82
2022-11-09T00:28:19.861Z,14.00
2022-11-09T00:30:48.012Z,14.02
2022-11-09T00:33:16.791Z,16.90
2022-11-09T00:35:44.549Z,17.58
2022-11-09T00:38:11.690Z,14.27
2022-11-09T00:40:39.157Z,11.35
2022-11-09T00:43:06.301Z,14.85
2022-11-09T00:45:33.791Z,12.73
2022-11-09T00:48:01.091Z,13.15
2022-11-09T00:50:29.901Z,17.88
2022-11-09T00:52:57.188Z,13.18
2022-11-09T00:55:24.776Z,12.82
2022-11-09T00:57:53.372Z,11.85
2022-11-09T01:00:23.993Z,14.90
2022-11-09T01:02:51.445Z,15.75
2022-11-09T01:05:19.900Z,13.77
2022-11-09T01:07:49.445Z,12.82
2022-11-09T01:10:17.086Z,12.30
2022-11-09T01:12:46.599Z,11.88
2022-11-09T01:15:15.553Z,14.02
2022-11-09T01:17:42.751Z,14.82
2022-11-09T01:20:10.919Z,10.88
2022-11-09T01:22:38.060Z,12.70
2022-11-09T01:25:06.035Z,11.60
2022-11-09T01:27:33.479Z,12.88
2022-11-09T01:30:01.178Z,13.52
2022-11-09T01:32:31.925Z,13.45
2022-11-09T01:34:59.452Z,10.07
2022-11-09T01:37:26.674Z,15.25
2022-11-09T01:39:54.149Z,11.10
2022-11-09T01:42:25.592Z,10.15
2022-11-09T01:45:14.792Z,13.90
2022-11-09T01:47:42.060Z,15.57
2022-11-09T01:50:11.994Z,14.60
2022-11-09T01:52:44.920Z,15.90
2022-11-09T01:55:16.940Z,17.08
2022-11-09T01:57:59.088Z,12.82
2022-11-09T02:00:26.539Z,13.07
2022-11-09T02:02:58.719Z,13.75
2022-11-09T02:05:31.212Z,13.07
2022-11-09T02:08:02.025Z,12.90
2022-11-09T02:10:35.839Z,12.75
2022-11-09T02:13:03.890Z,10.85
2022-11-09T02:15:40.238Z,11.93
2022-11-09T02:18:12.149Z,10.50
2022-11-09T02:20:57.890Z,10.68
2022-11-09T02:23:27.103Z,13.73
2022-11-09T02:26:00.433Z,12.95
2022-11-09T02:28:28.964Z,9.05
2022-11-09T02:30:58.043Z,13.32
2022-11-09T02:33:26.218Z,14.23
2022-11-09T02:35:54.882Z,11.02
2022-11-09T02:38:22.492Z,14.90
2022-11-09T02:40:52.649Z,12.73
2022-11-09T02:43:20.652Z,11.85
2022-11-09T02:45:48.831Z,13.40
2022-11-09T02:48:16.582Z,15.95
2022-11-09T02:50:44.139Z,13.10
2022-11-09T02:53:11.379Z,13.45
2022-11-09T02:55:42.700Z,11.30
2022-11-09T02:58:09.824Z,14.48
2022-11-09T03:00:37.946Z,14.27
2022-11-09T03:03:06.009Z,14.90
2022-11-09T03:05:33.616Z,14.75
2022-11-09T03:08:02.772Z,12.35
2022-11-09T03:10:33.920Z,12.98
2022-11-09T03:13:01.808Z,12.48
2022-11-09T03:15:29.407Z,13.65
2022-11-09T03:17:56.811Z,13.98
2022-11-09T03:20:25.234Z,13.55
2022-11-09T03:22:52.458Z,16.23
2022-11-09T03:25:20.243Z,14.07
2022-11-09T03:27:48.258Z,12.13
2022-11-09T03:30:19.061Z,14.00
2022-11-09T03:32:50.388Z,10.80
2022-11-09T03:35:18.396Z,14.32
2022-11-09T03:37:45.767Z,15.35
2022-11-09T03:40:13.678Z,12.27
2022-11-09T03:42:48.787Z,13.50
2022-11-09T03:45:16.830Z,14.50
2022-11-09T03:47:45.264Z,12.23
2022-11-09T03:50:14.585Z,13.80
2022-11-09T03:52:45.636Z,12.25
2022-11-09T03:55:13.829Z,13.05
2022-11-09T03:57:41.320Z,12.02
2022-11-09T04:00:09.410Z,12.95
2022-11-09T04:02:39.105Z,12.48
2022-11-09T04:05:07.330Z,13.70
2022-11-09T04:07:34.552Z,12.43
2022-11-09T04:10:02.036Z,12.02
2022-11-09T04:12:29.154Z,12.52
2022-11-09T04:14:56.609Z,13.55
2022-11-09T04:17:24.081Z,14.20
2022-11-09T04:19:51.482Z,11.55
2022-11-09T04:22:18.648Z,15.38
2022-11-09T04:24:46.058Z,13.13
2022-11-09T04:27:13.182Z,15.70
2022-11-09T04:29:40.598Z,15.65
2022-11-09T04:32:08.084Z,17.75
2022-11-09T04:34:35.506Z,13.93
2022-11-09T04:37:02.732Z,17.20
2022-11-09T04:39:30.245Z,16.13
2022-11-09T04:41:57.379Z,17.48
2022-11-09T04:44:24.880Z,13.80
2022-11-09T04:46:52.004Z,17.05
2022-11-09T04:49:19.549Z,16.90
2022-11-09T04:51:46.846Z,16.90
2022-11-09T04:54:14.424Z,16.13
2022-11-09T04:56:41.611Z,15.73
2022-11-09T04:59:09.067Z,15.90
2022-11-09T05:01:36.281Z,17.90
2022-11-09T05:04:03.830Z,17.08
2022-11-09T05:06:34.019Z,17.00
2022-11-09T05:09:04.891Z,15.70
2022-11-09T05:11:33.359Z,15.93
2022-11-09T05:14:01.637Z,17.45
2022-11-09T05:16:30.799Z,16.70
2022-11-09T05:18:58.346Z,18.35
2022-11-09T05:21:25.507Z,17.90
2022-11-09T05:23:59.033Z,18.92
2022-11-09T05:26:30.769Z,17.95
2022-11-09T05:28:59.301Z,17.85
2022-11-09T05:31:27.782Z,16.83
2022-11-09T05:33:55.418Z,20.05
2022-11-09T05:36:23.399Z,19.90
2022-11-09T05:38:51.159Z,18.75
2022-11-09T05:41:18.382Z,17.77
2022-11-09T05:43:46.189Z,17.50
2022-11-09T05:46:14.916Z,22.90
2022-11-09T05:48:43.297Z,19.02
2022-11-09T05:51:12.840Z,20.70
2022-11-09T05:53:45.179Z,20.83
2022-11-09T05:56:14.757Z,20.15
2022-11-09T05:58:42.786Z,18.17
2022-11-09T06:01:17.034Z,21.80
2022-11-09T06:03:44.644Z,17.58
2022-11-09T06:06:16.747Z,16.67
2022-11-09T06:08:44.365Z,21.98
2022-11-09T06:11:16.804Z,20.85
2022-11-09T06:13:49.419Z,19.98
2022-11-09T06:16:16.573Z,23.13
2022-11-09T06:18:43.998Z,21.02
2022-11-09T06:21:11.214Z,20.88
2022-11-09T06:23:38.657Z,18.23
2022-11-09T06:26:09.722Z,17.73
2022-11-09T06:28:38.424Z,21.85
2022-11-09T06:31:07.825Z,19.60
2022-11-09T06:33:36.270Z,19.17
2022-11-09T06:36:04.445Z,16.77
2022-11-09T06:38:32.005Z,18.67
2022-11-09T06:41:00.378Z,18.10
2022-11-09T06:43:28.464Z,17.25
2022-11-09T06:45:56.506Z,19.10
2022-11-09T06:48:24.640Z,16.45
2022-11-09T06:50:51.802Z,18.60
2022-11-09T06:53:19.644Z,16.67
2022-11-09T06:55:50.534Z,21.23
2022-11-09T06:58:19.718Z,12.32
2022-11-09T07:00:47.172Z,19.70
2022-11-09T07:03:16.233Z,20.38
2022-11-09T07:05:44.165Z,21.45
2022-11-09T07:08:12.236Z,19.35
2022-11-09T07:10:39.768Z,19.40
2022-11-09T07:13:07.704Z,18.23
2022-11-09T07:15:36.185Z,26.15
2022-11-09T07:18:05.445Z,20.60
2022-11-09T07:20:32.904Z,21.27
2022-11-09T07:23:00.399Z,18.77
2022-11-09T07:25:27.650Z,16.90
2022-11-09T07:27:55.102Z,33.55
2022-11-09T07:30:22.262Z,19.95
2022-11-09T07:35:38.059Z,21.23
2022-11-09T07:38:05.877Z,20.88
2022-11-09T07:40:33.558Z,19.00
2022-11-09T07:43:01.998Z,16.02
2022-11-09T07:45:30.441Z,19.55
2022-11-09T07:47:59.139Z,18.25
2022-11-09T07:50:27.580Z,15.27
2022-11-09T07:52:56.603Z,17.88
2022-11-09T07:55:24.905Z,17.10
2022-11-09T07:58:04.868Z,23.08
2022-11-09T08:00:33.792Z,17.80
2022-11-09T08:03:01.609Z,17.70
2022-11-09T08:05:30.107Z,15.20
2022-11-09T08:08:00.236Z,18.50
2022-11-09T08:10:29.152Z,16.27
2022-11-09T08:12:58.606Z,16.73
2022-11-09T08:15:26.712Z,14.68
2022-11-09T08:17:54.849Z,13.57
2022-11-09T08:20:21.997Z,15.43
2022-11-09T08:22:49.565Z,15.00
2022-11-09T08:25:16.793Z,15.82
2022-11-09T08:27:44.313Z,15.60
2022-11-09T08:30:17.583Z,14.88
2022-11-09T08:32:45.808Z,14.85
2022-11-09T08:35:17.938Z,18.48
2022-11-09T08:37:47.020Z,16.70
2022-11-09T08:40:17.075Z,16.42
2022-11-09T08:42:45.093Z,14.80
2022-11-09T08:45:12.495Z,15.40
2022-11-09T08:47:40.279Z,14.55
2022-11-09T08:50:09.239Z,17.30
2022-11-09T08:52:37.266Z,15.48
2022-11-09T08:55:05.184Z,15.40
2022-11-09T08:57:32.739Z,16.05
2022-11-09T08:59:59.902Z,17.23
2022-11-09T09:02:27.389Z,17.60
2022-11-09T09:04:54.622Z,12.25
2022-11-09T09:07:22.285Z,13.32
2022-11-09T09:09:49.492Z,13.13
2022-11-09T09:12:17.235Z,14.43
2022-11-09T09:14:44.389Z,12.50
2022-11-09T09:17:11.867Z,14.07
2022-11-09T09:19:40.135Z,14.65
2022-11-09T09:22:07.618Z,13.55
2022-11-09T09:24:35.459Z,13.85
2022-11-09T09:27:03.029Z,12.23
2022-11-09T09:29:30.196Z,11.55
2022-11-09T09:31:57.695Z,12.52
2022-11-09T09:34:24.813Z,16.05
2022-11-09T09:36:53.760Z,13.15
2022-11-09T09:39:21.561Z,12.32
2022-11-09T09:41:58.369Z,13.95
2022-11-09T09:44:51.615Z,14.90
2022-11-09T09:47:37.282Z,16.02
2022-11-09T09:50:13.266Z,14.65
2022-11-09T09:53:04.741Z,18.13
2022-11-09T09:55:40.435Z,18.05
2022-11-09T09:58:28.954Z,20.10
2022-11-09T10:01:29.900Z,18.67
2022-11-09T10:03:57.378Z,17.83
2022-11-09T10:06:40.534Z,19.88
2022-11-09T10:09:28.337Z,16.83
2022-11-09T10:12:20.217Z,18.83
2022-11-09T10:15:02.274Z,17.23
2022-11-09T10:17:40.147Z,14.10
2022-11-09T10:20:15.869Z,14.55
2022-11-09T10:22:55.475Z,13.48
2022-11-09T10:25:43.952Z,14.40
2022-11-09T10:28:17.465Z,14.98
2022-11-09T10:30:45.287Z,12.98
2022-11-09T10:33:20.887Z,14.80
2022-11-09T10:36:05.252Z,12.50
2022-11-09T10:38:45.241Z,15.70
2022-11-09T10:41:40.403Z,14.50
2022-11-09T10:44:25.907Z,17.55
2022-11-09T10:47:22.647Z,17.70
2022-11-09T10:50:37.586Z,13.50
2022-11-09T10:53:25.711Z,13.75
2022-11-09T10:56:21.120Z,17.77
2022-11-09T10:59:29.576Z,14.52
2022-11-09T11:02:42.950Z,16.75
2022-11-09T11:05:31.265Z,16.73
2022-11-09T11:08:39.917Z,18.67
2022-11-09T11:11:34.445Z,17.48
2022-11-09T11:14:43.220Z,23.00
2022-11-09T11:17:36.224Z,20.65
2022-11-09T11:20:36.608Z,19.63
2022-11-09T11:23:25.299Z,20.35
2022-11-09T11:26:19.891Z,20.83
2022-11-09T11:29:33.497Z,17.58
2022-11-09T11:32:20.520Z,23.25
2022-11-09T11:35:15.012Z,17.48
2022-11-09T11:38:18.822Z,17.67
2022-11-09T11:41:31.110Z,17.23
2022-11-09T11:44:16.941Z,19.80
2022-11-09T11:47:29.727Z,18.25
2022-11-09T11:50:26.035Z,16.10
2022-11-09T11:53:28.762Z,20.90
2022-11-09T11:56:38.121Z,19.80
2022-11-09T11:59:37.176Z,19.67
2022-11-09T12:02:41.407Z,17.85
2022-11-09T12:05:55.160Z,16.55
2022-11-09T12:09:00.535Z,16.27
2022-11-09T12:12:17.955Z,15.18
2022-11-09T12:15:25.535Z,19.38
2022-11-09T12:18:29.273Z,19.10
2022-11-09T12:21:23.865Z,14.48
2022-11-09T12:24:25.366Z,15.52
2022-11-09T12:27:41.457Z,11.80
2022-11-09T12:30:59.308Z,12.88
2022-11-09T12:34:03.198Z,15.55
2022-11-09T12:36:54.598Z,15.68
2022-11-09T12:39:50.819Z,16.45
2022-11-09T12:42:46.211Z,15.95
2022-11-09T12:45:37.977Z,18.55
2022-11-09T12:51:12.510Z,18.25
2022-11-09T12:54:00.083Z,14.95
2022-11-09T12:56:54.602Z,18.25
2022-11-09T12:59:54.987Z,16.90
2022-11-09T13:02:59.093Z,15.50
2022-11-09T13:05:47.684Z,17.80
2022-11-09T13:08:33.700Z,16.10
2022-11-09T13:11:51.827Z,16.50
2022-11-09T13:14:38.801Z,16.50
2022-11-09T13:17:24.785Z,14.98
2022-11-09T13:24:00.079Z,14.20
2022-11-09T13:26:47.079Z,15.77
2022-11-09T13:29:41.875Z,15.85
2022-11-09T13:32:29.666Z,15.10
2022-11-09T13:35:40.027Z,16.02
2022-11-09T13:38:28.854Z,17.20
2022-11-09T13:41:35.251Z,14.40
2022-11-09T13:44:20.871Z,17.58
2022-11-09T13:47:21.919Z,17.80
2022-11-09T13:50:28.756Z,13.85
2022-11-09T13:53:37.006Z,18.15
2022-11-09T13:56:28.427Z,17.13
2022-11-09T14:02:25.278Z,16.25
2022-11-09T14:05:32.981Z,15.95
2022-11-09T14:08:23.989Z,17.75
2022-11-09T14:11:35.810Z,16.23
2022-11-09T14:14:56.275Z,17.55
2022-11-09T14:18:10.896Z,16.42
2022-11-09T14:21:26.585Z,20.90
2022-11-09T14:24:18.925Z,19.30
2022-11-09T14:27:10.416Z,18.08
2022-11-09T14:32:49.504Z,20.98
2022-11-09T14:35:36.629Z,18.67
2022-11-09T14:38:26.320Z,18.65
2022-11-09T14:41:22.851Z,18.40
2022-11-09T14:44:28.592Z,19.52
2022-11-09T14:47:21.695Z,19.17
2022-11-09T14:50:15.725Z,18.10
2022-11-09T14:53:02.363Z,18.88
2022-11-09T14:55:52.635Z,17.35
2022-11-09T14:58:42.514Z,14.68
2022-11-09T15:01:28.812Z,18.33
2022-11-09T15:04:20.106Z,17.38
2022-11-09T15:07:06.758Z,14.57
2022-11-09T15:10:01.807Z,15.73
2022-11-09T15:12:50.186Z,18.80
2022-11-09T15:15:36.208Z,18.20
2022-11-09T15:18:33.464Z,19.88
2022-11-09T15:21:32.977Z,17.55
2022-11-09T15:24:19.911Z,16.73
2022-11-09T15:27:29.816Z,18.38
2022-11-09T15:30:33.129Z,19.40
2022-11-09T15:33:21.078Z,15.55
2022-11-09T15:36:27.422Z,16.92
2022-11-09T15:39:18.968Z,18.10
2022-11-09T15:42:04.658Z,15.70
2022-11-09T15:44:56.474Z,15.65
2022-11-09T15:47:53.796Z,17.92
2022-11-09T15:50:40.427Z,18.98
2022-11-09T15:53:26.868Z,21.50
2022-11-09T15:56:24.409Z,17.45
2022-11-09T15:59:23.264Z,22.15
2022-11-09T16:02:11.024Z,18.70
2022-11-09T16:04:56.960Z,21.15
2022-11-09T16:07:53.767Z,18.17
2022-11-09T16:10:40.851Z,20.05
2022-11-09T16:13:26.817Z,20.45
2022-11-09T16:16:15.561Z,21.75
2022-11-09T16:19:01.910Z,20.20
2022-11-09T16:21:48.684Z,21.70
2022-11-09T16:24:35.110Z,20.60
2022-11-09T16:27:48.502Z,22.08
2022-11-09T16:30:27.970Z,21.02
2022-11-09T16:33:14.098Z,24.13
2022-11-09T16:36:02.545Z,20.30
2022-11-09T16:38:51.701Z,21.67
2022-11-09T16:41:41.967Z,22.15
2022-11-09T16:44:34.054Z,21.52
2022-11-09T16:47:21.137Z,25.02
2022-11-09T16:50:07.502Z,23.38
2022-11-09T16:52:53.163Z,22.58
2022-11-09T16:55:38.741Z,25.88
2022-11-09T16:58:24.792Z,23.83
2022-11-09T17:01:13.007Z,22.77
2022-11-09T17:03:59.995Z,24.05
2022-11-09T17:06:45.885Z,23.15
2022-11-09T17:09:35.438Z,24.60
2022-11-09T17:12:21.320Z,31.48
2022-11-09T17:15:08.027Z,25.35
2022-11-09T17:17:53.388Z,27.35
2022-11-09T17:20:57.342Z,24.13
2022-11-09T17:23:43.505Z,29.00
2022-11-09T17:26:31.980Z,29.15
2022-11-09T17:29:17.522Z,24.77
2022-11-09T17:32:10.021Z,28.17
2022-11-09T17:34:55.877Z,26.58
2022-11-09T17:37:42.444Z,24.08
2022-11-09T17:40:28.114Z,23.92
2022-11-09T17:43:13.969Z,23.65
2022-11-09T17:46:08.052Z,25.35
2022-11-09T17:48:54.077Z,23.15
2022-11-09T17:51:40.016Z,25.63
2022-11-09T17:54:33.957Z,25.77
2022-11-09T17:57:22.204Z,26.65
2022-11-09T18:00:10.536Z,23.95
2022-11-09T18:02:56.525Z,21.33
2022-11-09T18:05:43.599Z,25.48
2022-11-09T18:08:29.601Z,26.08
2022-11-09T18:11:16.930Z,23.50
2022-11-09T18:14:03.551Z,25.83
2022-11-09T18:16:49.496Z,29.48
2022-11-09T18:19:34.992Z,28.05
2022-11-09T18:22:20.971Z,27.65
2022-11-09T18:25:07.027Z,24.30
2022-11-09T18:27:52.769Z,31.00
2022-11-09T18:30:41.792Z,26.58
2022-11-09T18:33:28.085Z,33.08
2022-11-09T18:36:15.914Z,33.92
2022-11-09T18:39:03.295Z,31.77
2022-11-09T18:41:48.724Z,31.45
2022-11-09T18:44:34.710Z,33.40
2022-11-09T18:47:20.738Z,29.42
2022-11-09T18:50:07.050Z,34.00
2022-11-09T18:52:52.661Z,33.30
2022-11-09T18:55:38.610Z,32.95
2022-11-09T18:58:24.250Z,30.67
2022-11-09T19:01:10.216Z,30.35
2022-11-09T19:03:59.298Z,33.22
2022-11-09T19:06:46.734Z,33.72
2022-11-09T19:09:35.985Z,32.95
2022-11-09T19:12:22.012Z,38.08
2022-11-09T19:15:08.213Z,32.97
2022-11-09T19:17:54.533Z,33.63
2022-11-09T19:20:40.710Z,34.70
2022-11-09T19:23:31.290Z,35.05
2022-11-09T19:26:21.287Z,35.70
2022-11-09T19:29:08.794Z,33.90
2022-11-09T19:31:55.144Z,36.90
2022-11-09T19:34:42.820Z,35.22
2022-11-09T19:37:29.308Z,34.33
2022-11-09T19:40:15.827Z,33.22
2022-11-09T19:43:01.381Z,38.28
2022-11-09T19:45:47.400Z,36.47
2022-11-09T19:48:35.103Z,34.08
2022-11-09T19:51:20.963Z,34.30
2022-11-09T19:54:07.483Z,36.80
2022-11-09T19:56:53.918Z,38.10
2022-11-09T19:59:39.363Z,36.25
2022-11-09T20:02:25.466Z,35.92
2022-11-09T20:05:11.453Z,35.83
2022-11-09T20:07:57.951Z,37.22
2022-11-09T20:10:43.443Z,38.10
2022-11-09T20:13:29.646Z,37.33
2022-11-09T20:16:15.581Z,39.13
2022-11-09T20:19:04.040Z,40.53
2022-11-09T20:21:49.812Z,37.75
2022-11-09T20:24:35.820Z,39.00
2022-11-09T20:27:22.592Z,36.42
2022-11-09T20:30:09.001Z,39.30
2022-11-09T20:32:54.546Z,37.13
2022-11-09T20:35:45.688Z,37.03
2022-11-09T20:38:32.493Z,38.58
2022-11-09T20:41:21.676Z,37.88
2022-11-09T20:44:08.497Z,35.72
2022-11-09T20:46:54.593Z,38.63
2022-11-09T20:49:43.413Z,40.45
2022-11-09T20:52:29.607Z,40.60
2022-11-09T20:55:19.129Z,40.85
2022-11-09T20:58:06.017Z,38.53
2022-11-09T21:01:13.572Z,38.08
2022-11-09T21:03:59.614Z,34.53
2022-11-09T21:06:45.380Z,37.65
2022-11-09T21:09:31.573Z,37.42
2022-11-09T21:12:24.901Z,36.60
2022-11-09T21:15:14.113Z,37.15
2022-11-09T21:18:00.186Z,38.30
2022-11-09T21:20:46.398Z,35.72
2022-11-09T21:23:50.897Z,38.50
2022-11-09T21:26:56.217Z,40.78
2022-11-09T21:29:50.626Z,40.10
2022-11-09T21:32:36.534Z,43.33
2022-11-09T21:35:22.041Z,40.13
2022-11-09T21:38:08.558Z,39.20
2022-11-09T21:40:54.005Z,40.53
2022-11-09T21:43:40.091Z,44.13
2022-11-09T21:46:25.597Z,39.50
2022-11-09T21:49:13.262Z,39.85
2022-11-09T21:51:58.969Z,38.95
2022-11-09T21:54:44.770Z,37.30
2022-11-09T21:57:30.272Z,36.97
2022-11-09T22:00:17.041Z,35.00
2022-11-09T22:03:03.306Z,39.88
2022-11-09T22:05:49.243Z,41.25
2022-11-09T22:08:35.649Z,40.78
2022-11-09T22:11:42.272Z,41.25
2022-11-09T22:14:46.458Z,38.08
2022-11-09T22:17:32.193Z,43.47
2022-11-09T22:20:36.512Z,36.75
2022-11-09T22:23:22.561Z,37.67
2022-11-09T22:26:09.085Z,43.28
2022-11-09T22:28:56.394Z,38.85
2022-11-09T22:31:41.855Z,39.15
2022-11-09T22:34:28.068Z,40.30
2022-11-09T22:37:14.113Z,39.00
2022-11-09T22:39:59.870Z,40.45
2022-11-09T22:42:45.433Z,38.72
2022-11-09T22:45:33.809Z,43.00
2022-11-09T22:48:19.412Z,45.55
2022-11-09T22:51:06.252Z,39.10
2022-11-09T22:53:52.312Z,49.20
2022-11-09T22:56:38.335Z,40.13
2022-11-09T22:59:24.006Z,39.05
2022-11-09T23:02:10.028Z,43.22
2022-11-09T23:04:55.695Z,43.67
2022-11-09T23:07:42.475Z,41.53
2022-11-09T23:10:27.881Z,40.47
2022-11-09T23:13:13.911Z,39.65
2022-11-09T23:16:05.141Z,38.60
2022-11-09T23:18:53.904Z,37.50
2022-11-09T23:21:39.808Z,31.98
2022-11-09T23:24:44.675Z,37.35
2022-11-09T23:27:30.569Z,35.28
2022-11-09T23:30:16.790Z,38.88
2022-11-09T23:33:02.925Z,38.47
2022-11-09T23:35:48.973Z,36.28
2022-11-09T23:38:37.051Z,33.72
2022-11-09T23:41:22.952Z,35.67
2022-11-09T23:44:08.609Z,31.33
2022-11-09T23:46:54.680Z,33.30
2022-11-09T23:49:40.437Z,33.90
2022-11-09T23:52:26.399Z,29.80
2022-11-09T23:55:12.212Z,29.27
2022-11-09T23:58:01.283Z,29.15
